Terminal Aerodrome Forecast
Issued by NWS

Home | Current Version | Previous Version | Text Only | Print | Product List | Glossary On
Versions: 1 2 3 4 5 6 7 8 9 10 11 12 13 14 15 16 17 18 19
000
FTUS46 KMFR 221120
TAFLMT
TAF
KLMT 221120Z 2212/2312 14018G30KT P6SM SCT015 OVC040
      TEMPO 2212/2216 3SM -SN OVC015
     FM221800 21012G20KT P6SM BKN060
     FM230000 14012G20KT P6SM -SHSN SCT025 OVC040=

USA.gov is the U.S. government's official web portal to all federal, state and local government web resources and services.